createdAt,value
2019-04-04T00:02:17.144Z,7.17
2019-04-04T00:04:46.770Z,6.63
2019-04-04T00:07:15.558Z,7.93
2019-04-04T00:09:45.757Z,6.77
2019-04-04T00:12:15.028Z,7.33
2019-04-04T00:14:44.269Z,6.93
2019-04-04T00:17:13.132Z,6.80
2019-04-04T00:19:42.655Z,7.53
2019-04-04T00:22:11.484Z,6.23
2019-04-04T00:24:40.276Z,7.13
2019-04-04T00:27:09.066Z,9.00
2019-04-04T00:29:37.906Z,8.27
2019-04-04T00:32:06.752Z,7.53
2019-04-04T00:34:35.499Z,9.50
2019-04-04T00:37:04.728Z,7.50
2019-04-04T00:39:34.404Z,8.07
2019-04-04T00:42:03.227Z,9.20
2019-04-04T00:44:31.909Z,8.27
2019-04-04T00:47:01.871Z,8.43
2019-04-04T00:49:31.176Z,8.77
2019-04-04T00:51:59.940Z,8.80
2019-04-04T00:54:28.804Z,9.47
2019-04-04T00:56:57.620Z,10.03
2019-04-04T00:59:26.415Z,10.63
2019-04-04T01:01:56.976Z,9.20
2019-04-04T01:04:25.624Z,10.83
2019-04-04T01:06:54.410Z,10.67
2019-04-04T01:09:23.235Z,10.17
2019-04-04T01:11:52.298Z,10.63
2019-04-04T01:14:21.112Z,10.47
2019-04-04T01:16:49.905Z,9.87
2019-04-04T01:19:18.773Z,12.93
2019-04-04T01:21:47.541Z,11.20
2019-04-04T01:24:16.333Z,13.27
2019-04-04T01:26:45.124Z,11.53
2019-04-04T01:29:13.944Z,11.53
2019-04-04T01:31:44.144Z,11.30
2019-04-04T01:34:13.205Z,11.23
2019-04-04T01:36:41.948Z,13.00
2019-04-04T01:39:10.620Z,11.60
2019-04-04T01:41:39.592Z,12.20
2019-04-04T01:44:10.773Z,15.27
2019-04-04T01:46:38.872Z,11.93
2019-04-04T01:49:07.626Z,12.73
2019-04-04T01:51:36.465Z,12.63
2019-04-04T01:54:05.481Z,12.90
2019-04-04T01:56:36.754Z,18.83
2019-04-04T01:59:05.257Z,14.70
2019-04-04T02:01:34.020Z,11.50
2019-04-04T02:04:02.876Z,11.53
2019-04-04T02:06:31.654Z,14.83
2019-04-04T02:09:02.657Z,13.07
2019-04-04T02:11:31.049Z,15.00
2019-04-04T02:13:59.753Z,14.83
2019-04-04T02:16:28.614Z,14.77
2019-04-04T02:18:57.384Z,18.43
2019-04-04T02:21:28.465Z,21.93
2019-04-04T02:23:56.755Z,14.80
2019-04-04T02:26:25.558Z,17.57
2019-04-04T02:28:56.071Z,18.67
2019-04-04T02:31:26.450Z,18.67
2019-04-04T02:33:55.221Z,18.30
2019-04-04T02:36:24.075Z,22.57
2019-04-04T02:38:57.614Z,21.10
2019-04-04T02:41:26.078Z,19.37
2019-04-04T02:43:55.012Z,21.13
2019-04-04T02:46:24.062Z,17.57
2019-04-04T02:48:55.858Z,22.43
2019-04-04T02:51:23.956Z,20.23
2019-04-04T02:53:53.113Z,19.63
2019-04-04T02:56:22.148Z,23.27
2019-04-04T02:58:51.529Z,22.50
2019-04-04T03:01:20.251Z,21.70
2019-04-04T03:03:49.021Z,21.40
2019-04-04T03:06:17.753Z,27.60
2019-04-04T03:08:47.951Z,21.77
2019-04-04T03:11:21.258Z,23.70
2019-04-04T03:13:47.283Z,22.80
2019-04-04T03:16:16.019Z,20.77
2019-04-04T03:18:44.970Z,24.50
2019-04-04T03:21:13.661Z,24.10
2019-04-04T03:23:42.450Z,22.37
2019-04-04T03:26:11.268Z,27.03
2019-04-04T03:28:40.073Z,24.80
2019-04-04T03:31:09.041Z,21.50
2019-04-04T03:33:37.943Z,27.20
2019-04-04T03:36:06.764Z,25.33
2019-04-04T03:38:35.526Z,29.03
2019-04-04T03:41:04.917Z,24.60
2019-04-04T03:43:33.666Z,22.77
2019-04-04T03:46:02.670Z,28.00
2019-04-04T03:48:31.436Z,25.10
2019-04-04T03:51:03.452Z,26.53
2019-04-04T03:53:30.841Z,24.33
2019-04-04T03:56:01.209Z,31.07
2019-04-04T03:58:30.355Z,26.30
2019-04-04T04:00:59.268Z,28.83
2019-04-04T04:03:28.169Z,22.30
2019-04-04T04:05:56.877Z,25.67
2019-04-04T04:08:25.863Z,25.30
2019-04-04T04:10:54.643Z,24.17
2019-04-04T04:13:23.409Z,27.40
2019-04-04T04:15:53.428Z,26.67
2019-04-04T04:18:22.224Z,35.60
2019-04-04T04:20:50.932Z,34.23
2019-04-04T04:23:22.999Z,32.33
2019-04-04T04:25:50.136Z,34.33
2019-04-04T04:28:20.137Z,33.03
2019-04-04T04:30:49.959Z,37.93
2019-04-04T04:33:18.905Z,35.03
2019-04-04T04:35:47.678Z,36.60
2019-04-04T04:38:16.515Z,30.67
2019-04-04T04:40:47.481Z,38.60
2019-04-04T04:43:16.068Z,37.07
2019-04-04T04:45:45.243Z,43.77
2019-04-04T04:48:14.369Z,42.33
2019-04-04T04:50:43.154Z,36.50
2019-04-04T04:53:12.877Z,36.00
2019-04-04T04:55:41.653Z,37.40
2019-04-04T04:58:11.250Z,37.70
2019-04-04T05:00:40.199Z,34.70
2019-04-04T05:03:09.068Z,34.23
2019-04-04T05:05:37.885Z,35.97
2019-04-04T05:08:09.696Z,35.10
2019-04-04T05:10:37.257Z,35.90
2019-04-04T05:13:07.838Z,33.73
2019-04-04T05:15:36.669Z,35.10
2019-04-04T05:18:05.652Z,34.53
2019-04-04T05:20:34.367Z,29.80
2019-04-04T05:23:03.295Z,31.70
2019-04-04T05:25:32.162Z,28.33
2019-04-04T05:28:00.918Z,32.10
2019-04-04T05:30:29.861Z,32.63
2019-04-04T05:32:58.676Z,36.20
2019-04-04T05:35:27.399Z,33.30
2019-04-04T05:37:56.408Z,33.47
2019-04-04T05:40:25.329Z,30.13
2019-04-04T05:42:54.247Z,29.43
2019-04-04T05:45:23.058Z,32.60
2019-04-04T05:47:55.115Z,31.17
2019-04-04T05:50:22.464Z,39.73
2019-04-04T05:52:51.185Z,37.10
2019-04-04T05:55:19.998Z,32.90
2019-04-04T05:57:48.983Z,30.57
2019-04-04T06:00:19.536Z,29.73
2019-04-04T06:02:48.398Z,30.90
2019-04-04T06:05:17.163Z,27.80
2019-04-04T06:07:45.998Z,30.40
2019-04-04T06:10:17.996Z,32.10
2019-04-04T06:12:45.687Z,32.23
2019-04-04T06:15:14.750Z,30.63
2019-04-04T06:17:43.618Z,28.90
2019-04-04T06:20:14.767Z,33.63
2019-04-04T06:22:43.440Z,29.37
2019-04-04T06:25:12.360Z,35.60
2019-04-04T06:27:41.243Z,29.37
2019-04-04T06:30:10.471Z,49.73
2019-04-04T06:32:39.288Z,31.27
2019-04-04T06:35:08.908Z,30.97
2019-04-04T06:37:38.782Z,27.67
2019-04-04T06:40:09.365Z,29.87
2019-04-04T06:42:38.142Z,35.47
2019-04-04T06:45:07.401Z,30.13
2019-04-04T06:47:36.330Z,28.93
2019-04-04T06:50:08.184Z,24.53
2019-04-04T06:52:37.380Z,33.13
2019-04-04T06:55:07.476Z,33.63
2019-04-04T06:57:37.322Z,28.40
2019-04-04T07:00:07.905Z,31.13
2019-04-04T07:02:36.847Z,28.20
2019-04-04T07:05:10.433Z,30.20
2019-04-04T07:07:38.201Z,27.70
2019-04-04T07:10:07.935Z,29.23
2019-04-04T07:12:38.099Z,29.90
2019-04-04T07:15:11.227Z,25.50
2019-04-04T07:17:40.487Z,28.50
2019-04-04T07:20:12.639Z,27.73
2019-04-04T07:22:41.414Z,29.60
2019-04-04T07:25:11.083Z,30.20
2019-04-04T07:27:40.238Z,28.70
2019-04-04T07:30:10.416Z,26.83
2019-04-04T07:32:41.665Z,29.40
2019-04-04T07:35:09.841Z,30.53
2019-04-04T07:37:38.639Z,26.97
2019-04-04T07:40:07.861Z,27.07
2019-04-04T07:42:36.638Z,27.53
2019-04-04T07:45:07.385Z,27.07
2019-04-04T07:47:36.277Z,30.27
2019-04-04T07:50:06.593Z,32.80
2019-04-04T07:52:37.605Z,31.97
2019-04-04T07:55:09.883Z,27.07
2019-04-04T07:57:37.252Z,29.33
2019-04-04T08:00:07.873Z,29.33
2019-04-04T08:02:36.686Z,29.70
2019-04-04T08:05:08.203Z,32.00
2019-04-04T08:07:37.070Z,27.10
2019-04-04T08:10:19.625Z,38.17
2019-04-04T08:12:38.235Z,29.17
2019-04-04T08:15:08.487Z,28.73
2019-04-04T08:17:37.908Z,37.43
2019-04-04T08:20:07.122Z,27.50
2019-04-04T08:22:35.981Z,35.27
2019-04-04T08:25:05.224Z,33.30
2019-04-04T08:27:34.019Z,32.07
2019-04-04T08:30:02.986Z,29.73
2019-04-04T08:32:31.843Z,32.63
2019-04-04T08:35:00.621Z,44.17
2019-04-04T08:37:29.463Z,38.90
2019-04-04T08:39:58.258Z,39.50
2019-04-04T08:42:26.957Z,38.17
2019-04-04T08:45:14.914Z,41.03
2019-04-04T08:47:43.672Z,46.70
2019-04-04T08:50:12.670Z,42.30
2019-04-04T08:52:41.416Z,38.47
2019-04-04T08:55:10.567Z,31.80
2019-04-04T08:57:40.766Z,33.13
2019-04-04T09:00:09.694Z,33.50
2019-04-04T09:02:38.556Z,40.20
2019-04-04T09:05:12.149Z,44.23
2019-04-04T09:07:38.483Z,53.27
2019-04-04T09:10:08.006Z,54.63
2019-04-04T09:12:36.890Z,62.40
2019-04-04T09:15:08.284Z,48.60
2019-04-04T09:17:38.062Z,36.70
2019-04-04T09:20:09.748Z,39.23
2019-04-04T09:22:41.088Z,36.93
2019-04-04T09:25:10.950Z,30.30
2019-04-04T09:27:40.211Z,39.17
2019-04-04T09:30:10.580Z,31.87
2019-04-04T09:32:39.504Z,34.23
2019-04-04T09:35:08.798Z,35.73
2019-04-04T09:37:37.712Z,30.50
2019-04-04T09:40:07.960Z,33.27
2019-04-04T09:42:36.767Z,28.90
2019-04-04T09:45:08.789Z,26.07
2019-04-04T09:47:37.761Z,39.20
2019-04-04T09:50:08.104Z,35.43
2019-04-04T09:52:36.897Z,31.60
2019-04-04T09:55:07.638Z,32.03
2019-04-04T09:57:37.418Z,26.60
2019-04-04T10:00:09.030Z,29.73
2019-04-04T10:02:37.922Z,26.00
2019-04-04T10:05:07.834Z,30.57
2019-04-04T10:07:36.733Z,28.47
2019-04-04T10:10:07.859Z,29.13
2019-04-04T10:12:36.658Z,33.93
2019-04-04T10:15:07.124Z,35.43
2019-04-04T10:17:35.983Z,32.20
2019-04-04T10:20:06.821Z,35.93
2019-04-04T10:22:35.672Z,34.50
2019-04-04T10:25:05.820Z,31.40
2019-04-04T10:27:34.607Z,32.90
2019-04-04T10:30:05.093Z,35.23
2019-04-04T10:32:34.140Z,32.90
2019-04-04T10:35:03.098Z,39.30
2019-04-04T10:37:31.885Z,32.90
2019-04-04T10:40:00.891Z,34.07
2019-04-04T10:42:31.164Z,30.50
2019-04-04T10:45:00.023Z,36.93
2019-04-04T10:47:28.889Z,29.27
2019-04-04T10:49:58.574Z,33.53
2019-04-04T10:52:27.516Z,39.47
2019-04-04T10:54:56.337Z,43.10
2019-04-04T10:57:25.124Z,42.80
2019-04-04T10:59:54.550Z,33.43
2019-04-04T11:02:23.952Z,38.43
2019-04-04T11:04:53.473Z,41.37
2019-04-04T11:07:22.247Z,33.60
2019-04-04T11:09:51.062Z,36.63
2019-04-04T11:12:20.317Z,34.03
2019-04-04T11:14:49.197Z,34.47
2019-04-04T11:17:18.142Z,34.43
2019-04-04T11:19:47.709Z,31.90
2019-04-04T11:22:16.450Z,35.93
2019-04-04T11:24:46.609Z,30.37
2019-04-04T11:27:17.508Z,31.60
2019-04-04T11:29:47.505Z,29.90
2019-04-04T11:32:16.366Z,26.40
2019-04-04T11:34:53.153Z,28.03
2019-04-04T11:37:15.706Z,30.27
2019-04-04T11:39:54.464Z,30.73
2019-04-04T11:42:15.651Z,26.90
2019-04-04T11:44:44.828Z,30.97
2019-04-04T11:47:13.671Z,29.00
2019-04-04T11:49:42.516Z,21.60
2019-04-04T11:52:11.314Z,20.33
2019-04-04T11:54:41.733Z,20.93
2019-04-04T11:57:10.681Z,24.80
2019-04-04T11:59:39.476Z,24.20
2019-04-04T12:02:08.161Z,22.30
2019-04-04T12:04:37.876Z,24.40
2019-04-04T12:07:06.690Z,23.03
2019-04-04T12:09:35.574Z,22.03
2019-04-04T12:12:04.341Z,22.73
2019-04-04T12:14:33.061Z,18.57
2019-04-04T12:17:01.827Z,19.57
2019-04-04T12:19:30.635Z,24.80
2019-04-04T12:21:59.317Z,21.20
2019-04-04T12:24:28.095Z,18.27
2019-04-04T12:26:56.831Z,14.93
2019-04-04T12:29:25.595Z,16.80
2019-04-04T12:31:54.404Z,14.13
2019-04-04T12:34:23.205Z,16.03
2019-04-04T12:36:52.579Z,16.43
2019-04-04T12:39:23.003Z,22.00
2019-04-04T12:41:51.872Z,22.13
2019-04-04T12:44:20.604Z,17.60
2019-04-04T12:46:50.979Z,22.53
2019-04-04T12:49:20.284Z,14.67
2019-04-04T12:51:49.063Z,16.60
2019-04-04T12:54:17.998Z,16.70
2019-04-04T12:56:46.830Z,15.83
2019-04-04T12:59:17.632Z,18.07
2019-04-04T13:01:46.526Z,15.90
2019-04-04T13:04:17.650Z,22.10
2019-04-04T13:07:00.104Z,22.50
2019-04-04T13:09:31.222Z,23.10
2019-04-04T13:12:00.117Z,21.57
2019-04-04T13:14:28.975Z,16.23
2019-04-04T13:16:59.418Z,24.23
2019-04-04T13:19:28.272Z,19.53
2019-04-04T13:21:57.079Z,20.00
2019-04-04T13:24:25.898Z,23.17
2019-04-04T13:26:54.686Z,19.50
2019-04-04T13:29:23.471Z,20.27
2019-04-04T13:31:52.853Z,21.50
2019-04-04T13:34:21.664Z,21.33
2019-04-04T13:36:51.581Z,18.53
2019-04-04T13:39:20.407Z,21.50
2019-04-04T13:41:49.170Z,22.67
2019-04-04T13:44:17.852Z,21.20
2019-04-04T13:46:46.708Z,19.00
2019-04-04T13:49:15.596Z,17.80
2019-04-04T13:51:44.715Z,19.87
2019-04-04T13:54:14.115Z,14.70
2019-04-04T13:56:43.123Z,17.77
2019-04-04T13:59:11.907Z,19.63
2019-04-04T14:01:42.882Z,18.37
2019-04-04T14:04:13.573Z,16.10
2019-04-04T14:06:42.397Z,17.27
2019-04-04T14:09:12.500Z,14.87
2019-04-04T14:11:42.193Z,24.10
2019-04-04T14:14:11.070Z,18.57
2019-04-04T14:16:39.962Z,18.80
2019-04-04T14:19:09.391Z,14.70
2019-04-04T14:21:38.289Z,16.30
2019-04-04T14:24:13.811Z,12.43
2019-04-04T14:26:39.823Z,13.27
2019-04-04T14:29:08.609Z,13.33
2019-04-04T14:31:37.572Z,10.80
2019-04-04T14:34:06.812Z,13.80
2019-04-04T14:36:36.075Z,11.17
2019-04-04T14:39:18.498Z,10.80
2019-04-04T14:41:48.799Z,11.07
2019-04-04T14:44:17.734Z,12.80
2019-04-04T14:46:46.663Z,19.20
2019-04-04T14:49:15.586Z,10.30
2019-04-04T14:51:44.546Z,11.53
2019-04-04T14:54:13.354Z,11.57
2019-04-04T14:56:42.304Z,14.63
2019-04-04T14:59:11.138Z,12.67
2019-04-04T15:01:39.950Z,16.53
2019-04-04T15:04:08.845Z,12.10
2019-04-04T15:06:37.752Z,18.93
2019-04-04T15:09:09.408Z,10.90
2019-04-04T15:11:38.275Z,14.00
2019-04-04T15:14:07.182Z,12.50
2019-04-04T15:16:36.054Z,12.83
2019-04-04T15:19:04.930Z,11.03
2019-04-04T15:21:33.754Z,10.70
2019-04-04T15:24:02.516Z,12.20
2019-04-04T15:26:31.904Z,12.20
2019-04-04T15:29:00.754Z,10.30
2019-04-04T15:31:30.123Z,10.37
2019-04-04T15:33:59.179Z,12.03
2019-04-04T15:36:36.818Z,10.40
2019-04-04T15:39:08.967Z,14.20
2019-04-04T15:41:40.844Z,20.90
2019-04-04T15:44:12.784Z,8.53
2019-04-04T15:46:44.989Z,14.33
2019-04-04T15:49:14.250Z,8.60
2019-04-04T15:51:43.143Z,9.00
2019-04-04T15:54:13.942Z,10.77
2019-04-04T15:56:42.899Z,9.90
2019-04-04T15:59:13.098Z,9.47
2019-04-04T16:01:44.553Z,12.53
2019-04-04T16:04:13.334Z,10.40
2019-04-04T16:06:47.484Z,8.90
2019-04-04T16:09:17.466Z,10.60
2019-04-04T16:11:49.773Z,9.80
2019-04-04T16:14:19.061Z,10.60
2019-04-04T16:16:47.900Z,10.00
2019-04-04T16:19:17.408Z,10.77
2019-04-04T16:21:47.004Z,9.93
2019-04-04T16:24:17.276Z,10.83
2019-04-04T16:26:46.096Z,11.50
2019-04-04T16:29:14.876Z,12.13
2019-04-04T16:31:43.839Z,9.47
2019-04-04T16:34:12.745Z,12.63
2019-04-04T16:36:42.673Z,41.70
2019-04-04T16:39:11.626Z,21.53
2019-04-04T16:41:40.549Z,17.10
2019-04-04T16:44:11.405Z,8.70
2019-04-04T16:46:40.981Z,9.50
2019-04-04T16:49:12.399Z,10.27
2019-04-04T16:51:43.988Z,13.13
2019-04-04T16:54:13.446Z,9.83
2019-04-04T16:56:42.291Z,8.90
2019-04-04T16:59:11.661Z,10.40
2019-04-04T17:01:44.672Z,9.80
2019-04-04T17:04:12.687Z,8.70
2019-04-04T17:06:41.530Z,9.70
2019-04-04T17:09:10.354Z,8.20
2019-04-04T17:11:40.706Z,10.40
2019-04-04T17:14:10.960Z,9.37
2019-04-04T17:16:39.834Z,8.47
2019-04-04T17:19:08.665Z,8.53
2019-04-04T17:21:38.904Z,9.33
2019-04-04T17:24:07.860Z,8.47
2019-04-04T17:26:36.641Z,41.13
2019-04-04T17:29:05.472Z,19.50
2019-04-04T17:31:34.313Z,17.03
2019-04-04T17:34:03.257Z,18.87
2019-04-04T17:36:32.144Z,9.60
2019-04-04T17:39:04.126Z,12.93
2019-04-04T17:41:34.955Z,9.60
2019-04-04T17:44:06.758Z,11.20
2019-04-04T17:46:36.750Z,11.40
2019-04-04T17:49:05.857Z,9.80
2019-04-04T17:51:35.336Z,11.60
2019-04-04T17:54:04.901Z,9.60
2019-04-04T17:56:34.027Z,11.60
2019-04-04T17:59:03.680Z,19.73
2019-04-04T18:01:34.375Z,15.50
2019-04-04T18:04:03.381Z,13.20
2019-04-04T18:06:33.088Z,11.77
2019-04-04T18:09:02.011Z,13.37
2019-04-04T18:11:31.007Z,11.77
2019-04-04T18:14:00.319Z,11.73
2019-04-04T18:16:30.477Z,13.20
2019-04-04T18:19:00.753Z,12.73
2019-04-04T18:21:29.623Z,11.37
2019-04-04T18:23:59.858Z,15.20
2019-04-04T18:26:28.732Z,16.33
2019-04-04T18:28:57.584Z,12.67
2019-04-04T18:31:27.910Z,12.87
2019-04-04T18:33:57.543Z,16.00
2019-04-04T18:36:26.859Z,29.00
2019-04-04T18:38:56.447Z,64.43
2019-04-04T18:41:25.372Z,76.47
2019-04-04T18:43:54.221Z,76.23
2019-04-04T18:46:25.111Z,108.00
2019-04-04T18:48:54.969Z,128.07
2019-04-04T18:51:23.891Z,108.90
2019-04-04T18:53:53.801Z,107.47
2019-04-04T18:56:22.751Z,103.17
2019-04-04T18:58:52.400Z,57.30
2019-04-04T19:01:21.242Z,45.20
2019-04-04T19:03:50.175Z,34.60
2019-04-04T19:06:19.041Z,23.80
2019-04-04T19:08:50.656Z,20.83
2019-04-04T19:11:19.821Z,29.97
2019-04-04T19:13:49.476Z,44.23
2019-04-04T19:16:20.004Z,48.17
2019-04-04T19:18:51.219Z,55.33
2019-04-04T19:21:20.587Z,37.40
2019-04-04T19:23:49.778Z,25.67
2019-04-04T19:26:18.621Z,25.83
2019-04-04T19:28:47.731Z,24.53
2019-04-04T19:31:17.428Z,39.93
2019-04-04T19:33:46.384Z,42.33
2019-04-04T19:36:16.796Z,37.80
2019-04-04T19:38:46.326Z,38.73
2019-04-04T19:41:15.241Z,37.57
2019-04-04T19:43:46.530Z,42.53
2019-04-04T19:46:15.404Z,28.63
2019-04-04T19:48:44.322Z,27.93
2019-04-04T19:51:13.215Z,30.40
2019-04-04T19:53:42.105Z,23.53
2019-04-04T19:56:12.109Z,23.93
2019-04-04T19:58:41.023Z,38.20
2019-04-04T20:01:10.348Z,77.97
2019-04-04T20:03:40.692Z,45.13
2019-04-04T20:06:09.538Z,45.33
2019-04-04T20:08:38.355Z,25.07
2019-04-04T20:11:07.155Z,17.70
2019-04-04T20:13:37.298Z,17.93
2019-04-04T20:16:06.202Z,15.50
2019-04-04T20:18:35.070Z,14.73
2019-04-04T20:21:04.097Z,11.33
2019-04-04T20:23:32.981Z,10.50
2019-04-04T20:26:01.826Z,11.53
2019-04-04T20:28:32.612Z,14.63
2019-04-04T20:31:01.523Z,28.10
2019-04-04T20:33:30.312Z,52.37
2019-04-04T20:35:59.196Z,67.30
2019-04-04T20:38:28.058Z,85.97
2019-04-04T20:40:56.757Z,83.30
2019-04-04T20:43:25.683Z,84.20
2019-04-04T20:45:55.215Z,100.37
2019-04-04T20:48:24.073Z,96.50
2019-04-04T20:50:53.023Z,62.40
2019-04-04T20:53:22.491Z,32.03
2019-04-04T20:55:52.807Z,20.37
2019-04-04T20:58:23.059Z,18.40
2019-04-04T21:00:51.901Z,13.97
2019-04-04T21:03:20.772Z,14.60
2019-04-04T21:05:49.650Z,12.87
2019-04-04T21:08:18.418Z,13.27
2019-04-04T21:10:49.230Z,15.40
2019-04-04T21:13:18.064Z,11.87
2019-04-04T21:15:46.863Z,15.43
2019-04-04T21:18:15.733Z,14.70
2019-04-04T21:20:44.471Z,14.87
2019-04-04T21:23:13.269Z,20.93
2019-04-04T21:25:42.118Z,46.90
2019-04-04T21:28:10.924Z,43.83
2019-04-04T21:30:39.906Z,42.10
2019-04-04T21:33:08.731Z,45.23
2019-04-04T21:35:39.131Z,39.97
2019-04-04T21:38:07.834Z,45.50
2019-04-04T21:40:36.673Z,44.93
2019-04-04T21:43:05.483Z,47.47
2019-04-04T21:45:34.239Z,47.57
2019-04-04T21:48:02.992Z,52.50
2019-04-04T21:50:31.878Z,54.90
